Time;durP1;ratioP1;P1;durP2;ratioP2;P2;SDS_P1;SDS_P2;PMS_P1;PMS_P2;Temp;Humidity;BMP_temperature;BMP_pressure;BME280_temperature;BME280_humidity;BME280_pressure;Samples;Min_cycle;Max_cycle;Signal;HPM_P1;HPM_P2
2022/12/30 00:05:01;;;;;;;1.95;0.75;;;;;;;19.06;37.14;100950.22;16116978;19;129521;-49
2022/12/30 00:10:23;;;;;;;2.55;0.93;;;;;;;19.03;37.30;100958.19;16128355;19;132073;-47
2022/12/30 00:33:07;;;;;;;2.75;0.82;;;;;;;18.89;37.07;100964.03;16128806;19;129724;-52
2022/12/30 00:38:29;;;;;;;4.88;1.13;;;;;;;18.87;37.08;100968.13;16127998;19;129530;-47
2022/12/30 00:43:51;;;;;;;2.63;0.90;;;;;;;18.84;37.14;100963.09;16125173;19;128920;-48
2022/12/30 01:00:35;;;;;;;3.65;1.10;;;;;;;18.75;37.41;100988.44;16126655;19;131860;-48
2022/12/30 01:05:57;;;;;;;1.90;0.50;;;;;;;18.73;37.15;100990.59;16124135;19;130308;-50
2022/12/30 01:11:19;;;;;;;3.00;0.80;;;;;;;18.72;37.26;100974.22;16123204;19;129526;-53
2022/12/30 01:16:40;;;;;;;1.38;0.55;;;;;;;18.70;37.27;100977.25;16123418;19;129696;-50
2022/12/30 01:22:03;;;;;;;2.90;0.80;;;;;;;18.69;37.09;100980.25;16124676;19;130588;-49
2022/12/30 01:27:25;;;;;;;5.07;0.82;;;;;;;18.68;37.53;100995.19;16121342;19;130438;-51
2022/12/30 01:32:47;;;;;;;2.17;0.80;;;;;;;18.65;37.42;100995.66;16120621;19;130445;-53
2022/12/30 01:38:08;;;;;;;1.25;0.70;;;;;;;18.63;37.62;101015.31;16121687;19;131024;-50
2022/12/30 01:43:47;;;;;;;1.25;0.60;;;;;;;18.63;37.26;101026.41;16118291;19;130707;-48
2022/12/30 01:49:09;;;;;;;0.73;0.50;;;;;;;18.58;37.59;101034.63;16122307;19;130641;-50
2022/12/30 01:54:33;;;;;;;2.25;0.80;;;;;;;18.56;37.31;101014.63;16119088;19;131707;-46
2022/12/30 01:59:55;;;;;;;4.82;0.70;;;;;;;18.54;37.15;101011.25;16119721;19;130603;-52
2022/12/30 02:05:21;;;;;;;2.95;0.60;;;;;;;18.54;37.40;100994.63;16118812;19;129632;-51
2022/12/30 02:10:46;;;;;;;2.00;0.47;;;;;;;18.51;37.40;100987.66;16120002;19;131107;-50
2022/12/30 02:16:14;;;;;;;2.22;0.70;;;;;;;18.50;37.61;100998.97;16118992;19;130205;-50
2022/12/30 02:21:54;;;;;;;1.60;0.60;;;;;;;18.49;37.47;100997.28;16123449;19;129731;-49
2022/12/30 02:27:57;;;;;;;1.38;0.50;;;;;;;18.47;37.19;101005.84;16114147;19;130471;-52
2022/12/30 02:33:28;;;;;;;2.72;0.50;;;;;;;18.44;37.30;100993.34;16117878;19;130072;-51
2022/12/30 02:39:19;;;;;;;3.00;0.70;;;;;;;18.41;37.51;100968.88;16119078;19;130391;-53
2022/12/30 02:44:57;;;;;;;1.58;0.40;;;;;;;18.42;37.66;100964.16;16113821;19;130379;-52
2022/12/30 02:56:09;;;;;;;1.95;0.60;;;;;;;18.37;37.39;100948.25;16115855;19;129624;-50
2022/12/30 03:07:41;;;;;;;1.35;0.50;;;;;;;18.32;37.29;100931.53;16118476;19;130077;-50
2022/12/30 03:13:15;;;;;;;0.83;0.30;;;;;;;18.31;37.31;100936.22;16114844;19;129420;-49
2022/12/30 03:18:38;;;;;;;0.90;0.40;;;;;;;18.29;37.27;100929.25;16118245;19;128943;-46
2022/12/30 03:29:47;;;;;;;3.22;0.77;;;;;;;18.27;37.68;100925.88;16116140;19;129302;-49
2022/12/30 03:35:09;;;;;;;1.53;0.50;;;;;;;18.24;37.41;100921.69;16114173;19;129943;-51
2022/12/30 03:40:36;;;;;;;2.17;0.47;;;;;;;18.23;37.25;100924.69;16113269;19;130560;-52
2022/12/30 03:45:58;;;;;;;1.02;0.50;;;;;;;18.21;37.54;100929.66;16127568;19;131404;-51
2022/12/30 03:51:20;;;;;;;0.63;0.40;;;;;;;18.21;37.32;100933.25;16127759;19;130743;-49
2022/12/30 03:56:42;;;;;;;1.20;0.50;;;;;;;18.20;37.32;100941.81;16130277;19;130202;-51
2022/12/30 04:02:03;;;;;;;1.63;0.60;;;;;;;18.18;37.63;100932.88;16118690;19;129888;-53
2022/12/30 04:07:25;;;;;;;1.33;0.40;;;;;;;18.18;37.70;100935.66;16125746;19;129740;-50
2022/12/30 04:12:47;;;;;;;5.57;0.70;;;;;;;18.15;37.68;100932.28;16126732;19;131069;-51
2022/12/30 04:18:09;;;;;;;1.35;0.40;;;;;;;18.14;37.36;100921.47;16129091;19;129698;-53
2022/12/30 04:23:30;;;;;;;1.20;0.55;;;;;;;18.13;37.61;100911.47;16123673;19;130919;-53
2022/12/30 04:28:52;;;;;;;2.05;0.73;;;;;;;18.12;37.24;100912.56;16128522;19;129469;-52
2022/12/30 04:34:14;;;;;;;1.50;0.60;;;;;;;18.11;37.65;100913.63;16125531;19;129161;-53
2022/12/30 04:39:36;;;;;;;1.48;0.63;;;;;;;18.09;37.19;100911.09;16128498;19;130703;-48
2022/12/30 04:44:58;;;;;;;2.42;0.63;;;;;;;18.09;37.66;100905.56;16123929;19;130091;-52
2022/12/30 04:50:20;;;;;;;1.20;0.52;;;;;;;18.06;37.49;100906.06;16124899;19;130294;-53
2022/12/30 04:55:41;;;;;;;2.50;0.60;;;;;;;18.06;37.18;100900.53;16126401;19;129286;-49
2022/12/30 05:01:04;;;;;;;1.65;0.60;;;;;;;18.05;37.48;100885.00;16126848;19;129462;-52
2022/12/30 05:06:26;;;;;;;2.65;0.57;;;;;;;18.03;37.59;100878.03;16124216;19;131016;-53
2022/12/30 05:11:47;;;;;;;1.42;0.60;;;;;;;18.02;37.22;100881.88;16123830;19;129919;-50
2022/12/30 05:17:09;;;;;;;1.33;0.50;;;;;;;18.01;37.49;100883.78;16126560;19;130718;-50
2022/12/30 05:22:31;;;;;;;1.40;0.55;;;;;;;17.99;37.69;100895.13;16120820;19;131009;-52
2022/12/30 05:27:53;;;;;;;1.50;0.60;;;;;;;17.97;37.65;100899.22;16122001;19;130963;-54
2022/12/30 05:33:14;;;;;;;1.75;0.57;;;;;;;17.97;37.42;100913.06;16121016;19;129165;-50
2022/12/30 05:38:37;;;;;;;2.08;0.52;;;;;;;17.97;37.13;100902.00;16123455;19;129007;-50
2022/12/30 05:43:59;;;;;;;2.47;0.75;;;;;;;17.96;37.47;100894.78;16122934;19;130101;-49
2022/12/30 05:49:21;;;;;;;1.67;0.40;;;;;;;17.95;37.13;100898.63;16121082;19;129890;-51
2022/12/30 05:54:43;;;;;;;3.13;0.57;;;;;;;17.93;37.12;100881.41;16120710;19;133730;-49
2022/12/30 06:00:05;;;;;;;2.80;0.70;;;;;;;17.91;37.48;100875.28;16121764;19;129378;-49
2022/12/30 06:05:27;;;;;;;2.53;0.63;;;;;;;17.90;37.28;100877.22;16122168;19;130245;-49
2022/12/30 06:10:49;;;;;;;3.22;0.73;;;;;;;18.05;36.98;100854.53;16120425;19;128934;-55
2022/12/30 06:16:11;;;;;;;2.92;0.80;;;;;;;18.45;36.69;100848.19;16117984;19;132788;-46
2022/12/30 06:21:34;;;;;;;1.67;0.73;;;;;;;18.94;35.82;100841.31;16119856;19;131078;-51
2022/12/30 06:26:55;;;;;;;0.95;0.50;;;;;;;19.40;35.34;100830.16;16121834;19;130315;-51
2022/12/30 06:32:17;;;;;;;1.23;0.50;;;;;;;19.79;35.14;100823.78;16118259;19;130128;-48
2022/12/30 06:37:39;;;;;;;2.38;0.75;;;;;;;20.02;34.89;100808.00;16121207;19;129322;-51
2022/12/30 06:43:01;;;;;;;1.35;0.90;;;;;;;20.03;34.29;100804.13;16119478;19;129942;-53
2022/12/30 06:48:23;;;;;;;6.60;1.02;;;;;;;19.98;34.32;100789.03;16119576;19;132707;-50
2022/12/30 06:53:45;;;;;;;6.07;0.80;;;;;;;19.89;34.33;100773.94;16117811;19;130679;-53
2022/12/30 06:59:07;;;;;;;3.42;0.85;;;;;;;19.78;34.46;100766.59;16121645;19;129734;-51
2022/12/30 07:04:29;;;;;;;3.40;1.00;;;;;;;19.64;34.64;100764.19;16116804;19;130851;-49
2022/12/30 07:09:51;;;;;;;3.92;0.70;;;;;;;19.53;34.73;100740.19;16113555;19;130122;-48
2022/12/30 07:15:13;;;;;;;7.65;0.65;;;;;;;19.40;35.02;100738.59;16117977;19;130178;-49
2022/12/30 07:20:35;;;;;;;2.38;0.70;;;;;;;19.31;35.17;100731.84;16131821;19;129484;-53
2022/12/30 07:25:56;;;;;;;2.03;0.70;;;;;;;19.20;35.29;100736.38;16132975;19;129572;-50
2022/12/30 07:31:18;;;;;;;2.83;0.60;;;;;;;19.10;35.62;100708.47;16129643;19;130111;-47
2022/12/30 07:36:40;;;;;;;3.78;0.80;;;;;;;18.99;35.63;100702.78;16134808;19;130049;-47
2022/12/30 07:42:02;;;;;;;3.53;0.60;;;;;;;18.89;35.42;100702.63;16131434;19;130299;-50
2022/12/30 07:47:23;;;;;;;2.80;0.70;;;;;;;18.83;35.36;100687.84;16129478;19;130482;-49
2022/12/30 07:52:45;;;;;;;4.15;0.75;;;;;;;18.87;35.58;100689.03;16132418;19;129335;-46
2022/12/30 07:58:07;;;;;;;2.95;0.82;;;;;;;18.98;35.10;100662.28;16131321;19;129541;-48
2022/12/30 08:03:29;;;;;;;1.90;0.80;;;;;;;19.11;34.84;100652.78;16126859;19;130259;-47
2022/12/30 08:08:51;;;;;;;1.92;0.70;;;;;;;19.25;34.66;100644.13;16130335;19;129711;-49
2022/12/30 08:14:13;;;;;;;2.17;0.40;;;;;;;19.36;34.69;100641.19;16127841;19;129780;-52
2022/12/30 08:19:35;;;;;;;0.82;0.40;;;;;;;19.44;34.39;100628.81;16131544;19;129947;-49
2022/12/30 08:24:56;;;;;;;3.45;0.70;;;;;;;19.52;34.21;100621.97;16128092;19;130928;-52
2022/12/30 08:30:18;;;;;;;5.45;0.70;;;;;;;19.54;34.59;100608.69;16126717;19;129645;-53
2022/12/30 08:35:40;;;;;;;6.22;0.80;;;;;;;19.55;34.39;100596.50;16129954;19;131022;-49
2022/12/30 08:41:06;;;;;;;3.53;1.38;;;;;;;19.53;34.00;100595.91;16127948;19;129908;-50
2022/12/30 08:46:30;;;;;;;1.80;0.85;;;;;;;19.47;34.10;100588.59;16126455;19;130083;-51
2022/12/30 08:51:52;;;;;;;5.22;0.95;;;;;;;19.38;33.92;100577.16;16125307;19;129046;-51
2022/12/30 08:57:14;;;;;;;4.95;0.90;;;;;;;19.43;33.20;100571.66;16124416;19;130577;-50
2022/12/30 09:02:36;;;;;;;2.85;0.82;;;;;;;19.53;33.35;100574.53;16127758;19;130727;-52
2022/12/30 09:07:58;;;;;;;1.67;0.60;;;;;;;19.67;33.19;100558.31;16128260;19;134259;-50
2022/12/30 09:13:20;;;;;;;6.13;0.80;;;;;;;19.82;32.80;100556.78;16124143;19;129904;-48
2022/12/30 09:18:42;;;;;;;3.95;0.70;;;;;;;19.95;32.89;100559.09;16131324;19;129712;-52
2022/12/30 09:24:04;;;;;;;6.70;0.70;;;;;;;20.06;32.89;100534.25;16124180;19;129519;-48
2022/12/30 09:29:25;;;;;;;3.90;0.85;;;;;;;20.09;32.60;100530.94;16123039;19;130778;-49
2022/12/30 09:34:47;;;;;;;3.08;0.80;;;;;;;20.08;32.21;100524.56;16124763;19;130853;-52
2022/12/30 09:40:14;;;;;;;3.45;0.85;;;;;;;20.07;32.67;100495.09;16122475;19;130655;-50
2022/12/30 09:45:41;;;;;;;5.10;0.73;;;;;;;20.06;32.82;100485.09;16122946;19;130202;-53
2022/12/30 09:51:09;;;;;;;2.45;0.60;;;;;;;20.01;32.73;100473.94;16124817;19;130489;-50
2022/12/30 09:56:36;;;;;;;3.92;0.57;;;;;;;19.95;32.65;100447.22;16120414;19;129040;-51
2022/12/30 10:02:07;;;;;;;5.93;0.80;;;;;;;19.86;32.99;100449.66;16120620;19;131665;-50
2022/12/30 10:08:16;;;;;;;3.05;0.77;;;;;;;19.76;33.18;100436.53;16120779;19;129706;-52
2022/12/30 10:13:46;;;;;;;4.75;0.73;;;;;;;19.62;33.30;100422.28;16109752;19;130855;-50
2022/12/30 10:19:15;;;;;;;2.83;0.57;;;;;;;19.54;33.64;100408.91;16108518;19;130657;-52
2022/12/30 10:25:09;;;;;;;2.03;0.55;;;;;;;19.46;33.52;100390.81;16110889;19;130605;-47
2022/12/30 10:30:38;;;;;;;6.65;0.95;;;;;;;19.37;34.20;100387.69;16110264;19;130503;-49
2022/12/30 10:36:33;;;;;;;3.50;0.70;;;;;;;19.29;33.90;100368.78;16113589;19;129837;-48
2022/12/30 10:42:49;;;;;;;3.22;0.90;;;;;;;19.19;34.35;100352.03;16112591;19;129751;-48
2022/12/30 10:48:50;;;;;;;3.05;0.60;;;;;;;19.11;34.69;100338.63;16106490;19;129559;-50
2022/12/30 10:54:12;;;;;;;6.63;0.80;;;;;;;19.03;34.78;100312.22;16109505;19;129842;-50
2022/12/30 10:59:35;;;;;;;6.88;0.88;;;;;;;18.98;34.72;100295.56;16111065;19;130161;-50
2022/12/30 11:04:59;;;;;;;10.23;1.10;;;;;;;18.90;35.38;100277.47;16108341;19;129119;-54
2022/12/30 11:10:21;;;;;;;17.13;1.63;;;;;;;18.86;35.30;100243.91;16106511;19;129173;-53
2022/12/30 11:15:52;;;;;;;27.60;1.98;;;;;;;18.85;35.24;100219.22;16109591;19;133833;-54
2022/12/30 11:21:32;;;;;;;23.42;1.92;;;;;;;18.80;35.16;100195.06;16112288;19;130677;-52
2022/12/30 11:26:54;;;;;;;14.65;1.48;;;;;;;18.72;35.31;100179.75;16117157;19;130088;-50
2022/12/30 11:32:16;;;;;;;24.60;1.70;;;;;;;18.70;35.77;100162.59;16110306;19;130374;-52
2022/12/30 11:37:37;;;;;;;17.45;2.03;;;;;;;18.78;36.25;100144.59;16106291;19;131126;-49
2022/12/30 11:43:16;;;;;;;26.85;1.90;;;;;;;18.91;35.74;100121.16;16098749;19;131590;-53
2022/12/30 11:48:49;;;;;;;22.00;1.98;;;;;;;18.99;36.17;100117.88;16102202;19;130676;-54
2022/12/30 11:54:11;;;;;;;21.75;2.22;;;;;;;19.07;35.82;100117.38;16110559;19;130230;-52
2022/12/30 11:59:43;;;;;;;31.95;1.85;;;;;;;19.19;36.11;100085.81;16112368;19;130259;-51
2022/12/30 12:05:27;;;;;;;18.70;1.85;;;;;;;19.30;35.51;100070.91;16126710;19;130074;-51
2022/12/30 12:11:23;;;;;;;17.77;1.60;;;;;;;19.35;36.02;100051.50;16129150;19;129855;-51
2022/12/30 12:16:56;;;;;;;15.10;1.40;;;;;;;19.52;35.52;100034.63;16127685;19;129562;-53
2022/12/30 12:22:29;;;;;;;21.65;1.73;;;;;;;19.88;35.37;100006.09;16128794;19;131391;-50
2022/12/30 12:27:52;;;;;;;20.65;2.40;;;;;;;20.16;35.87;99970.59;16128746;19;129284;-49
2022/12/30 12:33:26;;;;;;;15.70;1.40;;;;;;;20.33;36.42;99924.97;16128490;19;129541;-51
2022/12/30 12:38:51;;;;;;;11.85;1.30;;;;;;;20.39;36.25;99894.13;16130436;19;129148;-52
2022/12/30 12:44:30;;;;;;;14.27;1.10;;;;;;;20.45;37.01;99878.25;16128283;19;130345;-53
2022/12/30 12:50:32;;;;;;;5.97;0.80;;;;;;;20.48;37.22;99855.47;16127206;19;129629;-47
2022/12/30 12:56:16;;;;;;;4.57;1.02;;;;;;;20.56;37.04;99851.28;16126370;19;130060;-49
2022/12/30 13:02:00;;;;;;;10.60;1.17;;;;;;;20.44;36.06;99821.88;16125381;19;133142;-54
2022/12/30 13:07:51;;;;;;;6.15;1.33;;;;;;;20.28;35.34;99823.06;16125126;19;129833;-50
2022/12/30 13:13:41;;;;;;;8.13;1.38;;;;;;;20.17;35.92;99807.56;16124151;19;129915;-52
2022/12/30 13:19:05;;;;;;;9.85;1.52;;;;;;;20.14;36.30;99786.75;16127205;19;135024;-51
2022/12/30 13:24:42;;;;;;;5.53;1.17;;;;;;;20.13;36.64;99779.53;16127815;19;129612;-50
2022/12/30 13:30:05;;;;;;;5.63;0.90;;;;;;;20.09;36.78;99781.22;16126014;19;129429;-51
2022/12/30 13:35:29;;;;;;;6.07;0.90;;;;;;;20.04;37.27;99779.28;16124473;19;130821;-53
2022/12/30 13:41:03;;;;;;;4.57;0.80;;;;;;;19.98;37.66;99784.00;16128871;19;129989;-50
2022/12/30 13:46:34;;;;;;;5.57;1.02;;;;;;;19.89;37.83;99763.50;16124796;19;129878;-53
2022/12/30 13:51:59;;;;;;;10.43;0.93;;;;;;;19.81;37.63;99761.31;16111411;19;131982;-53
2022/12/30 13:57:34;;;;;;;6.85;0.85;;;;;;;19.74;38.34;99760.78;16110761;19;130434;-51
2022/12/30 14:03:24;;;;;;;9.27;0.80;;;;;;;19.66;38.46;99760.25;16116109;19;130964;-51
2022/12/30 14:08:48;;;;;;;12.52;0.93;;;;;;;19.54;38.42;99726.44;16119507;19;129179;-51
2022/12/30 14:14:21;;;;;;;4.82;1.13;;;;;;;19.45;38.35;99725.34;16123999;19;129431;-49
2022/12/30 14:20:27;;;;;;;8.55;0.90;;;;;;;19.34;38.69;99716.22;16122011;19;130542;-53
2022/12/30 14:25:49;;;;;;;7.73;0.90;;;;;;;19.22;38.62;99697.97;16115312;19;130057;-52
2022/12/30 14:31:32;;;;;;;4.72;0.80;;;;;;;19.20;39.09;99702.09;16119476;19;130088;-51
2022/12/30 14:37:17;;;;;;;6.28;0.95;;;;;;;19.15;39.14;99696.53;16121637;19;129309;-50
2022/12/30 14:42:38;;;;;;;7.65;0.60;;;;;;;19.11;38.89;99703.75;16110117;19;130180;-51
2022/12/30 14:48:00;;;;;;;4.50;0.80;;;;;;;19.06;38.95;99712.91;16122890;19;129832;-54
2022/12/30 14:53:24;;;;;;;4.70;0.50;;;;;;;19.03;39.08;99714.31;16112631;19;129757;-53
2022/12/30 14:58:48;;;;;;;3.10;0.60;;;;;;;18.98;39.25;99727.34;16114596;19;131502;-50
2022/12/30 15:04:14;;;;;;;2.67;0.50;;;;;;;18.97;39.12;99736.75;16113254;19;130865;-51
2022/12/30 15:09:38;;;;;;;1.95;0.60;;;;;;;18.97;39.25;99734.81;16115418;19;129164;-49
2022/12/30 15:15:00;;;;;;;2.50;0.40;;;;;;;19.00;39.59;99745.34;16110715;19;130000;-51
2022/12/30 15:20:29;;;;;;;5.32;0.60;;;;;;;19.05;39.48;99742.59;16115673;19;130555;-46
2022/12/30 15:26:04;;;;;;;1.38;0.30;;;;;;;19.00;39.44;99755.63;16116585;19;129680;-50
2022/12/30 15:31:33;;;;;;;6.95;0.77;;;;;;;19.06;39.83;99763.66;16113558;19;129884;-50
2022/12/30 15:36:57;;;;;;;4.68;0.40;;;;;;;19.27;39.21;99766.44;16117210;19;130406;-48
2022/12/30 15:42:23;;;;;;;11.43;0.77;;;;;;;19.45;39.54;99772.50;16132700;19;130285;-46
2022/12/30 15:47:44;;;;;;;2.95;0.47;;;;;;;19.53;39.37;99777.47;16130895;19;131121;-47
2022/12/30 15:53:20;;;;;;;7.60;0.40;;;;;;;19.63;39.53;99779.41;16130690;19;130687;-46
2022/12/30 15:58:49;;;;;;;3.17;0.57;;;;;;;19.74;39.41;99788.53;16124309;19;131754;-48
2022/12/30 16:04:14;;;;;;;9.25;0.60;;;;;;;19.83;39.35;99803.47;16119482;19;130954;-49
2022/12/30 16:09:42;;;;;;;8.57;0.30;;;;;;;20.01;39.25;99807.63;16125096;19;130252;-46
2022/12/30 16:15:05;;;;;;;5.38;0.50;;;;;;;20.19;39.17;99817.25;16126267;19;131626;-50
2022/12/30 16:20:52;;;;;;;2.22;0.30;;;;;;;20.39;39.19;99815.53;16122947;19;129680;-50
2022/12/30 16:26:26;;;;;;;8.50;0.60;;;;;;;20.48;38.51;99827.69;16122833;19;130486;-46
2022/12/30 16:31:52;;;;;;;5.07;0.65;;;;;;;20.49;38.73;99829.34;16126556;19;129817;-52
2022/12/30 16:37:30;;;;;;;9.18;0.82;;;;;;;20.48;38.97;99836.03;16118657;19;129994;-51
2022/12/30 16:43:15;;;;;;;3.72;0.60;;;;;;;20.41;38.84;99850.22;16110351;19;130378;-49
2022/12/30 16:48:37;;;;;;;5.97;0.60;;;;;;;20.35;39.01;99869.97;16125496;19;129152;-50
2022/12/30 16:54:00;;;;;;;4.60;0.60;;;;;;;20.29;39.09;99874.72;16125433;19;129658;-47
2022/12/30 16:59:21;;;;;;;2.83;0.47;;;;;;;20.20;39.41;99888.34;16127808;19;129572;-46
2022/12/30 17:04:43;;;;;;;1.50;0.40;;;;;;;20.11;39.14;99901.16;16127175;19;129035;-48
2022/12/30 17:15:46;;;;;;;1.33;0.40;;;;;;;19.90;39.40;99931.72;16127013;19;129556;-50
2022/12/30 17:21:08;;;;;;;3.20;0.60;;;;;;;19.82;39.88;99941.44;16127450;19;131487;-48
2022/12/30 17:26:30;;;;;;;5.95;0.50;;;;;;;19.74;39.94;99927.28;16124412;19;129999;-48
2022/12/30 17:31:53;;;;;;;2.63;0.40;;;;;;;19.65;39.79;99950.03;16125025;19;129005;-51
2022/12/30 17:37:14;;;;;;;2.95;0.47;;;;;;;19.58;40.18;99963.34;16122974;19;128969;-50
2022/12/30 17:42:36;;;;;;;2.28;0.35;;;;;;;19.52;39.82;99936.72;16117944;19;132933;-51
2022/12/30 17:47:58;;;;;;;2.42;0.50;;;;;;;19.46;39.92;99957.22;16122402;19;129558;-47
2022/12/30 17:53:21;;;;;;;2.08;0.52;;;;;;;19.42;39.86;99986.63;16119396;19;129384;-46
2022/12/30 17:58:42;;;;;;;2.30;0.30;;;;;;;19.35;40.38;100001.59;16119665;19;130422;-47
2022/12/30 18:04:04;;;;;;;2.22;0.30;;;;;;;19.31;39.95;100002.41;16120483;19;129348;-49
2022/12/30 18:09:26;;;;;;;2.58;0.40;;;;;;;19.26;40.13;100006.00;16118084;19;131421;-48
2022/12/30 18:14:48;;;;;;;0.80;0.35;;;;;;;19.21;40.51;100020.69;16120020;19;129432;-47
2022/12/30 18:20:09;;;;;;;1.60;0.20;;;;;;;19.18;40.39;100028.69;16120377;19;129682;-47
2022/12/30 18:25:31;;;;;;;1.77;0.20;;;;;;;19.13;40.68;100031.44;16119055;19;129713;-47
2022/12/30 18:30:53;;;;;;;0.90;0.10;;;;;;;19.10;40.50;100043.06;16120606;19;130128;-50
2022/12/30 18:36:19;;;;;;;1.65;0.20;;;;;;;19.07;40.32;100048.06;16117016;19;129414;-48
2022/12/30 18:41:40;;;;;;;;;;;;;;;19.00;40.85;100039.16;16122234;19;131236;-50
2022/12/30 18:47:02;;;;;;;0.70;0.17;;;;;;;18.99;40.81;100048.56;16119247;19;129343;-49
2022/12/30 18:52:24;;;;;;;1.02;0.10;;;;;;;18.97;40.83;100070.19;16117060;19;129395;-54
2022/12/30 18:57:46;;;;;;;1.30;0.10;;;;;;;18.94;40.79;100078.19;16115441;19;129459;-51
2022/12/30 19:03:08;;;;;;;0.47;0.10;;;;;;;18.91;40.87;100076.81;16120283;19;128912;-50
2022/12/30 19:08:30;;;;;;;1.08;0.20;;;;;;;18.88;40.63;100089.28;16118561;19;129455;-52
2022/12/30 19:13:55;;;;;;;1.15;0.25;;;;;;;18.88;40.58;100096.75;16119089;19;130679;-55
2022/12/30 19:19:17;;;;;;;0.60;0.28;;;;;;;18.85;40.76;100091.72;16117711;19;130334;-53
2022/12/30 19:24:38;;;;;;;0.20;0.10;;;;;;;18.83;40.63;100116.94;16118430;19;130619;-52
2022/12/30 19:30:00;;;;;;;0.30;0.10;;;;;;;18.82;40.98;100117.22;16119677;19;130302;-52
2022/12/30 19:35:22;;;;;;;0.60;0.17;;;;;;;18.80;41.05;100142.41;16117844;19;130185;-54
2022/12/30 19:40:44;;;;;;;1.35;0.22;;;;;;;18.79;40.85;100153.78;16114798;19;130493;-53
2022/12/30 19:46:06;;;;;;;0.75;0.30;;;;;;;18.76;41.08;100155.97;16118756;19;130091;-53
2022/12/30 19:51:28;;;;;;;0.30;0.10;;;;;;;18.76;41.15;100160.69;16115918;19;129066;-53
2022/12/30 19:56:50;;;;;;;2.30;0.32;;;;;;;18.75;40.81;100164.56;16117130;19;129380;-54
2022/12/30 20:02:12;;;;;;;1.83;0.10;;;;;;;18.74;40.65;100168.44;16117076;19;128904;-52
2022/12/30 20:07:35;;;;;;;0.20;0.10;;;;;;;18.72;40.95;100177.00;16117072;19;128865;-50
2022/12/30 20:12:57;;;;;;;0.20;0.17;;;;;;;18.71;40.71;100175.31;16116228;19;130289;-47
2022/12/30 20:18:18;;;;;;;0.60;0.13;;;;;;;18.69;41.08;100177.53;16108497;19;130199;-53
2022/12/30 20:23:41;;;;;;;0.20;0.10;;;;;;;18.68;40.82;100181.41;16120510;19;129556;-49
2022/12/30 20:29:07;;;;;;;0.52;0.17;;;;;;;18.67;40.74;100179.75;16131202;19;130306;-50
2022/12/30 20:34:30;;;;;;;0.10;0.10;;;;;;;18.66;41.22;100166.13;16126720;19;129104;-49
2022/12/30 20:39:52;;;;;;;0.63;0.20;;;;;;;18.65;40.85;100162.53;16130711;19;130618;-51
2022/12/30 20:45:19;;;;;;;0.32;0.20;;;;;;;18.63;40.81;100167.50;16130192;19;130335;-50
2022/12/30 20:50:41;;;;;;;0.43;0.20;;;;;;;18.62;40.89;100188.00;16126951;19;129396;-53
2022/12/30 20:56:10;;;;;;;0.45;0.20;;;;;;;18.61;40.91;100202.94;16126666;19;131123;-52
2022/12/30 21:01:38;;;;;;;0.17;0.15;;;;;;;18.61;41.17;100205.72;16123976;19;128909;-52
2022/12/30 21:06:59;;;;;;;0.40;0.20;;;;;;;18.59;41.00;100207.91;16130212;19;130051;-50
2022/12/30 21:12:21;;;;;;;0.20;0.20;;;;;;;18.58;41.08;100217.34;16127586;19;129764;-50
2022/12/30 21:17:43;;;;;;;0.40;0.22;;;;;;;18.56;41.33;100216.78;16128358;19;130446;-50
2022/12/30 21:23:05;;;;;;;1.35;0.20;;;;;;;18.55;41.11;100215.09;16124150;19;129269;-51
2022/12/30 21:28:30;;;;;;;0.30;0.20;;;;;;;18.54;41.33;100218.97;16124732;19;129060;-48
2022/12/30 21:33:52;;;;;;;0.40;0.20;;;;;;;18.53;41.18;100229.19;16121743;19;131207;-48
2022/12/30 22:02:46;;;;;;;1.15;0.25;;;;;;;18.46;41.32;100239.66;16121054;19;129965;-49
2022/12/30 22:08:16;;;;;;;0.30;0.17;;;;;;;18.46;41.36;100240.47;16122358;19;129925;-52
2022/12/30 22:13:41;;;;;;;0.08;0.05;;;;;;;18.44;41.54;100237.16;16121817;19;130049;-49
2022/12/30 22:19:06;;;;;;;0.38;0.20;;;;;;;18.45;41.32;100238.84;16121852;19;130214;-53
2022/12/30 22:24:27;;;;;;;1.75;0.20;;;;;;;18.44;41.26;100239.06;16121643;19;130241;-52
2022/12/30 22:29:49;;;;;;;0.68;0.10;;;;;;;18.42;41.11;100228.28;16120979;19;129739;-51
2022/12/30 22:35:12;;;;;;;0.10;0.10;;;;;;;18.42;41.53;100228.28;16121604;19;130215;-49
2022/12/30 22:40:36;;;;;;;0.50;0.20;;;;;;;18.42;41.58;100233.81;16122718;19;129407;-49
2022/12/30 22:46:09;;;;;;;0.30;0.20;;;;;;;18.43;41.61;100243.81;16106836;19;130557;-50
2022/12/30 22:51:31;;;;;;;0.25;0.17;;;;;;;18.40;41.48;100241.53;16112783;19;130862;-47
2022/12/30 22:56:53;;;;;;;0.20;0.10;;;;;;;18.40;41.48;100238.78;16109206;19;130957;-51
2022/12/30 23:02:15;;;;;;;0.10;0.10;;;;;;;18.39;41.36;100248.19;16111512;19;129895;-50
2022/12/30 23:07:39;;;;;;;0.20;0.20;;;;;;;18.38;41.26;100243.69;16115519;19;129826;-47
2022/12/30 23:18:43;;;;;;;0.28;0.10;;;;;;;18.35;41.32;100227.59;16116204;19;129827;-54
2022/12/30 23:29:46;;;;;;;1.85;0.20;;;;;;;18.34;41.70;100231.47;16116932;19;129106;-50
2022/12/30 23:35:07;;;;;;;0.85;0.10;;;;;;;18.34;41.65;100214.03;16116515;19;130542;-49
2022/12/30 23:40:30;;;;;;;0.28;0.20;;;;;;;18.34;41.33;100227.88;16113459;19;130386;-49
2022/12/30 23:45:53;;;;;;;0.30;0.20;;;;;;;18.34;41.58;100225.94;16110491;19;130924;-53
2022/12/30 23:51:20;;;;;;;4.00;0.30;;;;;;;18.32;42.07;100219.84;16112838;19;130635;-50
2022/12/30 23:56:42;;;;;;;1.50;0.30;;;;;;;18.31;41.78;100227.28;16113635;19;129269;-48
